KRNT - Renton, Washington, USA
Distance from station: W 21mi, 33km
Updated: Sat, 28-Nov-2020 11:53pm PST
Fog, Overcast
Fog, Overcast
 Wind from S
Wind: S 3 mph , 6 km/h
Temperature: 36°F , 2°C
Dew Point: 36°F , 2°C
Humidity: 100%
Barometer: 30.37 inHg , 1028.4 hPa
Visibility: 1/4 mile , 0.4 km
Cloud details: 200 ft
2020/11/29 07:53 KRNT 290753Z AUTO 19003KT 1/4SM FG VV002 02/02 A3037 RMK AO2 SLP288 T00220017 400940022 FZRANO $
KBFI - Seattle/Boeing, Washington, USA
Distance from station: W 25mi, 41km
Updated: Sun, 29-Nov-2020 12:26am PST
Fog, Overcast
Fog, Overcast
 Wind from S
Wind: S 5 mph , 7 km/h
Temperature: 36°F , 2°C
Wind Chill: 32°F , 0°C
Dew Point: 36°F , 2°C
Humidity: 100%
Barometer: 30.37 inHg , 1028.4 hPa
Visibility: 1/4 mile , 0.4 km
Cloud details: 200 ft
2020/11/29 08:26 KBFI 290826Z 17004KT 1/4SM FG VV002 02/02 A3037 RMK AO2 T00220022
 
KSEA - Seattle/Metro, Washington, USA
Distance from station: W 25mi, 41km
Updated: Sat, 28-Nov-2020 11:53pm PST
Patches of fog, Few clouds
Patches of fog, Few clouds
 Wind from calm
Wind: Calm
Temperature: 37°F , 3°C
Dew Point: 36°F , 2°C
Humidity: 93%
Barometer: 30.35 inHg , 1027.8 hPa
Visibility: 7 miles , 11 km
Cloud details: 100 ft
25000 ft
2020/11/29 07:53 KSEA 290753Z 00000KT 7SM BCFG FEW001 FEW250 03/02 A3035 RMK AO2 SLP287 T00280022 400890022 $
KSMP - Stampede Pass, Washington, USA
Distance from station: SE 26mi, 41km
Updated: Sat, 28-Nov-2020 11:56pm PST

 Wind from varies
Wind: varies 5 mph , 7 km/h
Temperature: 30°F , -1°C
Wind Chill: 25°F , -4°C
Dew Point: 27°F , -3°C
Humidity: 86%
Barometer: 30.32 inHg , 1026.8 hPa
Visibility: 10 miles , 16 km
2020/11/29 07:56 KSMP 290756Z AUTO VRB04KT 10SM CLR M01/M03 A3032 RMK AO2 SLP291 I1000 T10111028
 
KPLU - Puyallup/Thun, Washington, USA
Distance from station: SW 36mi, 59km
Updated: Sun, 29-Nov-2020 12:15am PST
Light drizzle, Overcast
Light drizzle, Overcast
 Wind from calm
Wind: Calm
Temperature: 32°F , 0°C
Dew Point: 32°F , 0°C
Humidity: 100%
Barometer: 30.35 inHg , 1027.8 hPa
Visibility: 1/4 mile , 0.4 km
Cloud details: 200 ft
2020/11/29 08:15 KPLU 290815Z AUTO 00000KT 1/4SM -DZ OVC002 00/00 A3035 RMK AO2
KPAE - Everett, Washington, USA
Distance from station: NW 37mi, 60km
Updated: Sun, 29-Nov-2020 12:27am PST
Mist, Partly cloudy
Mist, Partly cloudy
 Wind from ESE
Wind: ESE 5 mph , 7 km/h
Temperature: 37°F , 3°C
Wind Chill: 33°F , 1°C
Dew Point: 36°F , 2°C
Humidity: 93%
Barometer: 30.34 inHg , 1027.4 hPa
Visibility: 2 1/2 miles , 4 km
Cloud details: 100 ft
2020/11/29 08:27 KPAE 290827Z AUTO 12004KT 2 1/2SM R16R/4000VP6000FT BR SCT001 03/02 A3034 RMK AO2 T00280017
 
KTIW - Tacoma, Washington, USA
Distance from station: WSW 41mi, 66km
Updated: Sat, 28-Nov-2020 11:53pm PST
Mist, Overcast
Mist, Overcast
 Wind from NE
Wind: NE 3 mph , 6 km/h
Temperature: 41°F , 5°C
Dew Point: 39°F , 4°C
Humidity: 93%
Barometer: 30.35 inHg , 1027.8 hPa
Visibility: 3 miles , 5 km
Cloud details: 200 ft
2020/11/29 07:53 KTIW 290753Z AUTO 04003KT 3SM BR OVC002 05/04 A3035 RMK AO2 SLP281 T00500039 400830028
KTCM - Tacoma/Mc Chord, Washington, USA
Distance from station: SW 42mi, 67km
Updated: Sat, 28-Nov-2020 11:58pm PST
Fog, Overcast
Fog, Overcast
 Wind from calm
Wind: Calm
Temperature: 39°F , 4°C
Dew Point: 39°F , 4°C
Humidity: 100%
Barometer: 30.35 inHg , 1027.8 hPa
Visibility: 1/4 mile , 0.4 km
Cloud details: 0 ft
2020/11/29 07:58 KTCM 290758Z AUTO 00000KT 1/4SM R16/1400V1600FT FG VV000 04/04 A3035 RMK AO2 SLP283 T00440038 400910011 $
 
KPWT - Bremerton Ntnl, Washington, USA
Distance from station: W 45mi, 73km
Updated: Sun, 29-Nov-2020 12:09am PST

 Wind from calm
Wind: Calm
Temperature: 30°F , -1°C
Dew Point: 30°F , -1°C
Humidity: 100%
Barometer: 30.36 inHg , 1028.1 hPa
Visibility: 10 miles , 16 km
Cloud details: 3700 ft
2020/11/29 08:09 KPWT 290809Z AUTO 00000KT 10SM BKN037 M01/M01 A3036 RMK AO2 FZRANO $
KGRF - Fort Lewis/Gray, Washington, USA
Distance from station: SW 48mi, 77km
Updated: Sat, 28-Nov-2020 11:58pm PST
Fog, Overcast
Fog, Overcast
 Wind from calm
Wind: Calm
Temperature: 41°F , 5°C
Dew Point: 41°F , 5°C
Humidity: 100%
Barometer: 30.34 inHg , 1027.4 hPa
Visibility: 1/4 mile , 0.4 km
Cloud details: 100 ft
2020/11/29 07:58 KGRF 290758Z 00000KT 1/4SM FG VV001 05/05 A3034 RMK AO2A SLP280 400910017 RVRNO $
 
KAWO - Arlington Muni, Washington, USA
Distance from station: NNW 50mi, 80km
Updated: Sun, 29-Nov-2020 12:28am PST
Mist, Clear
Mist, Clear
 Wind from calm
Wind: Calm
Temperature: 30°F , -1°C
Dew Point: 30°F , -1°C
Humidity: 100%
Barometer: 30.36 inHg , 1028.1 hPa
Visibility: 1 1/4 miles , 2 km
2020/11/29 08:28 KAWO 290828Z AUTO 00000KT 1 1/4SM BR CLR M01/M01 A3036 RMK AO2 FZRANO